Accueil
METAR-TAF:

METAR-TAF

Aéroports :

Ermelo, Afrique du Sud

latitude: 26-29-44S, longitude: 29-58-47E, altitude: 1737 m

Observation

Le bulletin a été fait il y a 22 heures et 6 minutes, à 15:37 UTC
Vent 5 kt de est
Température 12°C
Humidité 94%
Pression 1027 hPa

METAR: FAEO 111537Z AUTO 09005KT //// // ////// 12/11 Q1027

Heure: 15:43 (13:43 UTC)


TAF: absent

Observations et prévisions météorologiques de plus de 4000 aéroports (messages METAR et TAF).

Les stations disponibles sont représentées par des disques jaunes et rouges sur la carte.

Passer la souris dessus pour voir le nom de la station.

Cliquer dessus pour voir les observations et prévisions météorologiques.

Pour changer de carte: cliquez sur les boutons verts avec une croix noire pour zoomer, sur le bouton vert avec un tiret pour effectuer un zoom arrière, ou sur les flèches vertes pour les cartes adjacentes.


METAR-TAF: